Time;durP1;ratioP1;P1;durP2;ratioP2;P2;SDS_P1;SDS_P2;PMS_P1;PMS_P2;Temp;Humidity;BMP_temperature;BMP_pressure;BME280_temperature;BME280_humidity;BME280_pressure;Samples;Min_cycle;Max_cycle;Signal;HPM_P1;HPM_P2
2023/10/15 00:01:55;;;;;;;;;;;8.20;72.20;;;;;;5135369;23;19983;-84
2023/10/15 00:04:16;;;;;;;;;;;8.20;72.40;;;;;;5134944;23;19912;-86
2023/10/15 00:06:36;;;;;;;;;;;8.30;72.60;;;;;;5114318;23;19981;-86
2023/10/15 00:08:59;;;;;;;;;;;8.20;72.50;;;;;;5136641;23;19942;-84
2023/10/15 00:11:21;;;;;;;;;;;8.20;72.10;;;;;;5135520;23;19911;-85
2023/10/15 00:13:41;;;;;;;;;;;8.20;72.10;;;;;;5136326;23;19943;-86
2023/10/15 00:16:02;;;;;;;;;;;8.30;72.20;;;;;;5109079;23;19904;-87
2023/10/15 00:18:23;;;;;;;;;;;8.10;71.90;;;;;;5135868;23;19915;-85
2023/10/15 00:20:43;;;;;;;;;;;8.20;71.50;;;;;;5135983;23;19908;-85
2023/10/15 00:22:44;;;;;;;;;;;8.20;71.40;;;;;;5136495;23;20459;-84
2023/10/15 00:24:45;;;;;;;;;;;8.20;71.40;;;;;;5136390;23;19908;-84
2023/10/15 00:26:46;;;;;;;;;;;8.10;71.20;;;;;;5108586;23;20495;-84
2023/10/15 00:28:47;;;;;;;;;;;8.20;71.40;;;;;;5133143;23;19908;-85
2023/10/15 00:30:48;;;;;;;;;;;8.20;71.30;;;;;;5130109;23;19919;-85
2023/10/15 00:32:52;;;;;;;;;;;8.20;71.20;;;;;;5135548;23;20046;-84
2023/10/15 00:34:53;;;;;;;;;;;8.20;71.20;;;;;;5085350;23;19931;-85
2023/10/15 00:37:01;;;;;;;;;;;8.10;71.10;;;;;;5108796;23;19916;-85
2023/10/15 00:39:09;;;;;;;;;;;8.10;70.90;;;;;;5110086;23;19912;-84
2023/10/15 00:41:13;;;;;;;;;;;8.00;70.90;;;;;;5110121;23;19909;-86
2023/10/15 00:43:27;;;;;;;;;;;8.10;70.90;;;;;;5112449;23;19904;-85
2023/10/15 00:45:34;;;;;;;;;;;8.00;70.90;;;;;;5132575;23;20437;-85
2023/10/15 00:47:35;;;;;;;;;;;8.00;70.90;;;;;;5132631;23;19919;-85
2023/10/15 00:49:36;;;;;;;;;;;8.00;70.90;;;;;;5107711;23;19916;-85
2023/10/15 00:51:44;;;;;;;;;;;8.00;70.90;;;;;;5109405;23;20260;-84
2023/10/15 00:53:54;;;;;;;;;;;8.00;70.90;;;;;;5109324;23;19912;-85
2023/10/15 00:56:05;;;;;;;;;;;7.90;70.80;;;;;;5110067;23;19939;-85
2023/10/15 00:58:09;;;;;;;;;;;7.90;71.60;;;;;;5109109;23;20391;-84
2023/10/15 01:00:39;;;;;;;;;;;7.90;70.90;;;;;;5084828;23;19911;-85
2023/10/15 01:02:39;;;;;;;;;;;7.80;70.80;;;;;;5110320;23;19915;-85
2023/10/15 01:04:42;;;;;;;;;;;7.90;70.90;;;;;;5159469;22;19923;-85
2023/10/15 01:06:49;;;;;;;;;;;7.90;71.00;;;;;;5151569;22;19912;-84
2023/10/15 01:08:52;;;;;;;;;;;7.90;71.00;;;;;;5135894;23;19903;-84
2023/10/15 01:11:19;;;;;;;;;;;7.90;71.00;;;;;;5136257;23;20037;-84
2023/10/15 01:13:24;;;;;;;;;;;7.90;71.00;;;;;;5110669;23;19915;-84
2023/10/15 01:15:48;;;;;;;;;;;7.90;71.10;;;;;;5137148;23;19983;-83
2023/10/15 01:18:10;;;;;;;;;;;7.80;71.10;;;;;;5113791;23;19912;-83
2023/10/15 01:20:31;;;;;;;;;;;7.70;71.00;;;;;;5132655;23;19907;-83
2023/10/15 01:22:51;;;;;;;;;;;7.80;71.10;;;;;;5135519;23;19907;-84
2023/10/15 01:25:32;;;;;;;;;;;7.80;71.10;;;;;;5135834;23;19908;-83
2023/10/15 01:28:00;;;;;;;;;;;7.70;71.10;;;;;;5136810;23;19908;-84
2023/10/15 01:30:24;;;;;;;;;;;7.70;71.10;;;;;;5137355;23;19957;-84
2023/10/15 01:32:44;;;;;;;;;;;7.70;71.10;;;;;;5136161;23;19912;-83
2023/10/15 01:35:10;;;;;;;;;;;7.80;71.20;;;;;;5137192;23;19912;-83
2023/10/15 01:37:31;;;;;;;;;;;7.70;71.10;;;;;;5137463;23;19995;-84
2023/10/15 01:40:00;;;;;;;;;;;7.80;71.10;;;;;;5137262;23;19919;-83
2023/10/15 01:44:50;;;;;;;;;;;7.70;71.00;;;;;;5137248;23;19908;-84
2023/10/15 01:47:11;;;;;;;;;;;7.70;70.90;;;;;;5112330;23;19971;-83
2023/10/15 01:49:32;;;;;;;;;;;7.70;70.90;;;;;;5138177;23;19948;-83
2023/10/15 01:51:53;;;;;;;;;;;7.60;70.80;;;;;;5137643;23;19911;-84
2023/10/15 01:53:56;;;;;;;;;;;7.70;70.90;;;;;;5138690;23;19912;-84
2023/10/15 01:55:59;;;;;;;;;;;7.60;70.80;;;;;;5138287;23;19960;-87
2023/10/15 01:58:04;;;;;;;;;;;7.70;70.80;;;;;;5133991;23;19908;-84
2023/10/15 02:00:12;;;;;;;;;;;7.70;70.80;;;;;;5136798;23;19985;-84
2023/10/15 02:02:17;;;;;;;;;;;7.60;70.80;;;;;;5135010;23;20418;-84
2023/10/15 02:04:27;;;;;;;;;;;7.50;70.70;;;;;;5135236;23;19915;-84
2023/10/15 02:06:30;;;;;;;;;;;7.50;70.80;;;;;;5137635;23;19904;-83
2023/10/15 02:08:31;;;;;;;;;;;7.50;70.80;;;;;;5109462;23;19908;-84
2023/10/15 02:10:52;;;;;;;;;;;7.60;70.90;;;;;;5135858;23;19983;-83
2023/10/15 02:13:05;;;;;;;;;;;7.60;70.90;;;;;;5134663;23;19912;-84
2023/10/15 02:15:31;;;;;;;;;;;7.50;70.90;;;;;;5135662;23;19912;-84
2023/10/15 02:17:52;;;;;;;;;;;7.40;70.80;;;;;;5111118;23;19936;-84
2023/10/15 02:20:13;;;;;;;;;;;7.50;70.90;;;;;;5136479;23;19908;-83
2023/10/15 02:22:38;;;;;;;;;;;7.40;70.90;;;;;;5136748;23;19915;-86
2023/10/15 02:24:58;;;;;;;;;;;7.40;71.00;;;;;;5136287;23;19954;-86
2023/10/15 02:27:30;;;;;;;;;;;7.50;71.00;;;;;;5115288;23;19909;-84
2023/10/15 02:29:50;;;;;;;;;;;7.50;71.00;;;;;;5135046;23;20299;-83
2023/10/15 02:34:46;;;;;;;;;;;7.40;71.00;;;;;;5136809;23;19916;-84
2023/10/15 02:37:10;;;;;;;;;;;7.40;71.00;;;;;;5113566;23;19956;-84
2023/10/15 02:39:36;;;;;;;;;;;7.50;71.00;;;;;;5136032;23;19940;-83
2023/10/15 02:41:56;;;;;;;;;;;7.50;71.10;;;;;;5136508;23;19908;-84
2023/10/15 02:44:17;;;;;;;;;;;7.40;71.00;;;;;;5135970;23;19908;-83
2023/10/15 02:46:38;;;;;;;;;;;7.50;71.20;;;;;;5135756;23;19904;-84
2023/10/15 02:48:58;;;;;;;;;;;7.40;71.10;;;;;;5111336;23;19987;-83
2023/10/15 02:51:23;;;;;;;;;;;7.50;71.20;;;;;;5115119;23;19938;-83
2023/10/15 02:53:38;;;;;;;;;;;7.50;71.20;;;;;;5110987;23;19964;-84
2023/10/15 02:55:47;;;;;;;;;;;7.50;71.10;;;;;;5137193;23;19904;-84
2023/10/15 02:57:51;;;;;;;;;;;7.50;71.10;;;;;;5134615;23;20890;-84
2023/10/15 02:59:55;;;;;;;;;;;7.60;71.20;;;;;;5136777;23;19953;-83
2023/10/15 03:02:17;;;;;;;;;;;7.50;71.00;;;;;;5136066;23;19912;-84
2023/10/15 03:04:38;;;;;;;;;;;7.40;71.00;;;;;;5136001;23;19908;-84
2023/10/15 03:06:49;;;;;;;;;;;7.40;71.00;;;;;;5135773;23;19968;-85
2023/10/15 03:09:11;;;;;;;;;;;7.40;70.90;;;;;;5137687;23;19956;-85
2023/10/15 03:11:32;;;;;;;;;;;7.40;70.90;;;;;;5136405;23;19915;-85
2023/10/15 03:13:53;;;;;;;;;;;7.50;70.90;;;;;;5115174;23;19912;-86
2023/10/15 03:16:14;;;;;;;;;;;7.50;71.00;;;;;;5136733;23;19954;-84
2023/10/15 03:18:35;;;;;;;;;;;7.50;71.00;;;;;;5136968;23;19911;-83
2023/10/15 03:21:16;;;;;;;;;;;7.50;70.90;;;;;;5137282;23;19914;-86
2023/10/15 03:23:39;;;;;;;;;;;7.50;70.90;;;;;;5141347;23;19904;-85
2023/10/15 03:25:59;;;;;;;;;;;7.60;71.00;;;;;;5163627;22;19900;-88
2023/10/15 03:28:23;;;;;;;;;;;7.60;71.00;;;;;;5142747;22;19912;-85
2023/10/15 03:30:24;;;;;;;;;;;7.60;70.90;;;;;;5136992;23;19939;-86
2023/10/15 03:32:31;;;;;;;;;;;7.60;70.90;;;;;;5133936;23;20371;-84
2023/10/15 03:35:04;;;;;;;;;;;7.60;70.80;;;;;;5112234;23;19912;-83
2023/10/15 03:36:58;;;;;;;;;;;7.50;70.80;;;;;;5138032;23;20302;-86
2023/10/15 03:38:59;;;;;;;;;;;7.60;70.80;;;;;;5136700;23;20407;-86
2023/10/15 03:41:21;;;;;;;;;;;7.50;70.70;;;;;;5133788;23;19915;-84
2023/10/15 03:43:22;;;;;;;;;;;7.60;70.70;;;;;;5108664;23;19967;-85
2023/10/15 03:45:26;;;;;;;;;;;7.60;70.70;;;;;;5107235;23;19912;-84
2023/10/15 03:47:27;;;;;;;;;;;7.50;70.50;;;;;;5137673;23;19908;-85
2023/10/15 03:49:51;;;;;;;;;;;7.50;71.30;;;;;;5137818;23;19927;-84
2023/10/15 03:52:15;;;;;;;;;;;7.60;70.60;;;;;;5115532;23;19913;-87
2023/10/15 03:54:24;;;;;;;;;;;7.50;70.40;;;;;;5085060;23;19928;-86
2023/10/15 03:56:45;;;;;;;;;;;7.40;70.30;;;;;;5136875;23;20069;-84
2023/10/15 03:59:06;;;;;;;;;;;7.60;70.40;;;;;;5134803;23;19911;-87
2023/10/15 04:01:27;;;;;;;;;;;7.40;70.20;;;;;;5137079;23;19920;-84
2023/10/15 04:03:48;;;;;;;;;;;7.50;70.30;;;;;;5136332;23;19983;-85
2023/10/15 04:06:09;;;;;;;;;;;7.50;70.20;;;;;;5112572;23;19936;-84
2023/10/15 04:08:31;;;;;;;;;;;7.40;70.20;;;;;;5113687;23;19908;-84
2023/10/15 04:10:57;;;;;;;;;;;7.50;70.30;;;;;;5136304;23;19908;-84
2023/10/15 04:13:20;;;;;;;;;;;7.40;70.20;;;;;;5113840;23;20432;-84
2023/10/15 04:15:42;;;;;;;;;;;7.50;70.30;;;;;;5112647;23;19962;-83
2023/10/15 04:17:44;;;;;;;;;;;7.40;71.00;;;;;;5134640;23;19911;-87
2023/10/15 04:19:45;;;;;;;;;;;7.50;70.30;;;;;;5136384;23;19911;-84
2023/10/15 04:21:47;;;;;;;;;;;7.40;70.20;;;;;;5136536;23;19979;-84
2023/10/15 04:23:53;;;;;;;;;;;7.50;70.30;;;;;;5109783;23;19908;-84
2023/10/15 04:26:13;;;;;;;;;;;7.40;70.20;;;;;;5136506;23;19908;-84
2023/10/15 04:28:34;;;;;;;;;;;7.40;70.20;;;;;;5136679;23;19982;-84
2023/10/15 04:31:04;;;;;;;;;;;7.50;70.30;;;;;;5132545;23;19986;-85
2023/10/15 04:33:27;;;;;;;;;;;7.40;70.20;;;;;;5136376;23;19916;-84
2023/10/15 04:35:49;;;;;;;;;;;7.40;70.20;;;;;;5136027;23;19919;-86
2023/10/15 04:38:15;;;;;;;;;;;7.40;70.10;;;;;;5136333;23;19908;-84
2023/10/15 04:43:29;;;;;;;;;;;7.50;70.10;;;;;;5059834;23;19915;-85
2023/10/15 04:47:38;;;;;;;;;;;7.40;70.10;;;;;;5059497;23;20084;-87
2023/10/15 04:49:47;;;;;;;;;;;7.30;70.00;;;;;;5033979;23;19916;-84
2023/10/15 04:52:14;;;;;;;;;;;7.40;70.00;;;;;;5059474;23;19913;-84
2023/10/15 04:54:37;;;;;;;;;;;7.30;69.80;;;;;;5059920;23;19980;-85
2023/10/15 04:56:57;;;;;;;;;;;7.40;69.90;;;;;;5059981;23;19913;-83
2023/10/15 04:59:18;;;;;;;;;;;7.30;69.80;;;;;;5058961;23;19980;-84
2023/10/15 05:01:38;;;;;;;;;;;7.30;69.80;;;;;;5059846;23;19925;-83
2023/10/15 05:04:00;;;;;;;;;;;7.40;69.80;;;;;;5058901;23;19905;-84
2023/10/15 05:06:21;;;;;;;;;;;7.30;69.50;;;;;;5057600;23;19916;-85
2023/10/15 05:08:42;;;;;;;;;;;7.30;69.50;;;;;;5060066;23;20323;-84
2023/10/15 05:10:45;;;;;;;;;;;7.20;69.40;;;;;;5059560;23;19920;-85
2023/10/15 05:12:46;;;;;;;;;;;7.30;69.40;;;;;;5060322;23;20010;-85
2023/10/15 05:14:49;;;;;;;;;;;7.30;69.40;;;;;;5059981;23;19990;-83
2023/10/15 05:16:52;;;;;;;;;;;7.30;69.30;;;;;;5060893;23;20044;-85
2023/10/15 05:18:53;;;;;;;;;;;7.20;69.20;;;;;;5096744;23;19908;-85
2023/10/15 05:20:53;;;;;;;;;;;7.30;69.20;;;;;;5149553;22;19896;-84
2023/10/15 05:22:54;;;;;;;;;;;7.20;69.10;;;;;;5158414;22;19923;-88
2023/10/15 05:24:58;;;;;;;;;;;7.30;69.10;;;;;;5162610;22;20027;-87
2023/10/15 05:26:59;;;;;;;;;;;7.20;69.00;;;;;;5134768;23;19908;-85
2023/10/15 05:29:00;;;;;;;;;;;7.30;69.10;;;;;;5147229;23;20213;-85
2023/10/15 05:31:01;;;;;;;;;;;7.20;69.00;;;;;;5110575;23;19908;-87
2023/10/15 05:33:01;;;;;;;;;;;7.30;69.00;;;;;;5109060;23;20349;-86
2023/10/15 05:35:02;;;;;;;;;;;7.20;68.90;;;;;;5110259;23;20348;-84
2023/10/15 05:37:03;;;;;;;;;;;7.10;68.70;;;;;;5138762;23;19915;-86
2023/10/15 05:39:04;;;;;;;;;;;7.20;68.70;;;;;;5137817;23;19912;-84
2023/10/15 05:41:05;;;;;;;;;;;7.10;68.50;;;;;;5112083;23;19908;-84
2023/10/15 05:43:06;;;;;;;;;;;7.10;68.60;;;;;;5089002;23;19983;-85
2023/10/15 05:45:06;;;;;;;;;;;7.10;68.50;;;;;;5163039;22;19896;-88
2023/10/15 05:47:07;;;;;;;;;;;7.10;68.50;;;;;;5097766;23;19913;-86
2023/10/15 05:49:08;;;;;;;;;;;7.20;68.50;;;;;;5137341;23;19915;-85
2023/10/15 05:51:09;;;;;;;;;;;7.10;68.40;;;;;;5109118;23;20355;-86
2023/10/15 05:53:10;;;;;;;;;;;7.00;68.30;;;;;;5108861;23;20153;-84
2023/10/15 05:55:11;;;;;;;;;;;7.10;68.10;;;;;;5134928;23;20356;-86
2023/10/15 05:57:12;;;;;;;;;;;7.10;68.10;;;;;;5138057;23;19904;-85
2023/10/15 05:59:13;;;;;;;;;;;7.10;68.00;;;;;;5134901;23;20253;-86
2023/10/15 06:01:15;;;;;;;;;;;7.00;68.00;;;;;;5135653;23;19915;-84
2023/10/15 06:03:16;;;;;;;;;;;7.00;68.00;;;;;;5133409;23;19978;-84
2023/10/15 06:05:16;;;;;;;;;;;7.00;67.90;;;;;;5136765;23;20422;-84
2023/10/15 06:07:17;;;;;;;;;;;7.10;68.00;;;;;;5137513;23;19954;-85
2023/10/15 06:09:17;;;;;;;;;;;7.10;68.00;;;;;;5134817;23;20343;-85
2023/10/15 06:11:18;;;;;;;;;;;7.00;67.80;;;;;;5135105;23;20343;-84
2023/10/15 06:13:22;;;;;;;;;;;6.90;67.80;;;;;;5108825;23;19912;-85
2023/10/15 06:15:32;;;;;;;;;;;6.90;67.90;;;;;;5137006;23;19990;-85
2023/10/15 06:17:32;;;;;;;;;;;6.90;67.80;;;;;;5112020;23;19916;-84
2023/10/15 06:19:36;;;;;;;;;;;6.90;67.90;;;;;;5136190;23;19986;-85
2023/10/15 06:21:37;;;;;;;;;;;6.90;67.90;;;;;;5136913;23;19904;-83
2023/10/15 06:23:41;;;;;;;;;;;7.00;68.00;;;;;;5087839;23;19908;-84
2023/10/15 06:25:45;;;;;;;;;;;7.00;67.80;;;;;;5112494;23;19920;-84
2023/10/15 06:27:45;;;;;;;;;;;7.00;67.80;;;;;;5111258;23;19912;-84
2023/10/15 06:29:46;;;;;;;;;;;7.00;67.80;;;;;;5108957;23;19952;-86
2023/10/15 06:31:47;;;;;;;;;;;7.00;67.80;;;;;;5133319;23;19950;-86
2023/10/15 06:33:47;;;;;;;;;;;6.90;67.70;;;;;;5134388;23;20116;-85
2023/10/15 06:35:48;;;;;;;;;;;7.00;68.60;;;;;;5135547;23;19908;-85
2023/10/15 06:37:49;;;;;;;;;;;7.10;67.90;;;;;;5136041;23;19912;-86
2023/10/15 06:39:50;;;;;;;;;;;7.00;67.90;;;;;;5137108;23;19903;-85
2023/10/15 06:41:50;;;;;;;;;;;7.00;67.90;;;;;;5136669;23;19907;-86
2023/10/15 06:43:51;;;;;;;;;;;7.20;67.90;;;;;;5109927;23;19959;-85
2023/10/15 06:45:52;;;;;;;;;;;7.10;67.70;;;;;;5137377;23;19923;-85
2023/10/15 06:47:53;;;;;;;;;;;7.10;67.70;;;;;;5138735;23;19912;-85
2023/10/15 06:49:54;;;;;;;;;;;7.20;67.40;;;;;;5137111;23;19904;-85
2023/10/15 06:51:54;;;;;;;;;;;7.20;67.60;;;;;;5135451;23;20267;-86
2023/10/15 06:53:55;;;;;;;;;;;7.20;67.50;;;;;;5110164;23;19987;-87
2023/10/15 06:55:56;;;;;;;;;;;7.30;67.50;;;;;;5137538;23;20291;-87
2023/10/15 06:57:57;;;;;;;;;;;7.30;67.60;;;;;;5110657;23;20006;-86
2023/10/15 06:59:58;;;;;;;;;;;7.30;67.60;;;;;;5136000;23;19908;-86
2023/10/15 07:01:58;;;;;;;;;;;7.30;67.30;;;;;;5134937;23;19908;-84
2023/10/15 07:03:59;;;;;;;;;;;7.30;67.20;;;;;;5109879;23;19915;-85
2023/10/15 07:05:59;;;;;;;;;;;7.40;67.40;;;;;;5138612;23;20297;-85
2023/10/15 07:08:00;;;;;;;;;;;7.40;67.30;;;;;;5111760;23;19908;-84
2023/10/15 07:10:05;;;;;;;;;;;7.40;67.40;;;;;;5139696;23;20375;-85
2023/10/15 07:12:06;;;;;;;;;;;7.40;67.30;;;;;;5136569;23;19955;-85
2023/10/15 07:14:08;;;;;;;;;;;7.50;67.20;;;;;;5111807;23;19908;-86
2023/10/15 07:16:09;;;;;;;;;;;7.60;67.40;;;;;;5136808;23;19978;-85
2023/10/15 07:18:09;;;;;;;;;;;7.50;67.20;;;;;;5134955;23;19931;-86
2023/10/15 07:20:26;;;;;;;;;;;7.60;67.20;;;;;;5136146;23;19908;-86
2023/10/15 07:22:27;;;;;;;;;;;7.60;67.10;;;;;;5137286;23;19908;-86
2023/10/15 07:24:43;;;;;;;;;;;7.80;67.30;;;;;;5109597;23;19977;-85
2023/10/15 07:26:45;;;;;;;;;;;7.80;67.30;;;;;;5110600;23;19915;-85
2023/10/15 07:28:46;;;;;;;;;;;7.80;67.30;;;;;;5136285;23;19907;-86
2023/10/15 07:30:48;;;;;;;;;;;7.90;67.20;;;;;;5109375;23;19961;-85
2023/10/15 07:32:58;;;;;;;;;;;7.90;67.30;;;;;;5134782;23;19926;-85
2023/10/15 07:34:59;;;;;;;;;;;8.00;67.30;;;;;;5109556;23;19918;-84
2023/10/15 07:37:05;;;;;;;;;;;8.00;67.20;;;;;;5086522;23;20334;-86
2023/10/15 07:39:09;;;;;;;;;;;8.10;67.20;;;;;;5109518;23;20463;-84
2023/10/15 07:41:20;;;;;;;;;;;8.30;67.60;;;;;;5093080;23;19929;-85
2023/10/15 07:43:42;;;;;;;;;;;8.30;67.10;;;;;;5140758;23;20343;-85
2023/10/15 07:45:44;;;;;;;;;;;8.40;66.80;;;;;;5139398;23;19904;-84
2023/10/15 07:48:05;;;;;;;;;;;8.30;66.80;;;;;;5116914;23;20293;-85
2023/10/15 07:50:07;;;;;;;;;;;8.40;66.90;;;;;;5138740;23;19915;-84
2023/10/15 07:52:27;;;;;;;;;;;8.40;66.70;;;;;;5140112;23;19911;-86
2023/10/15 07:54:48;;;;;;;;;;;8.50;66.70;;;;;;5117270;23;19904;-86
2023/10/15 07:57:12;;;;;;;;;;;8.60;66.60;;;;;;5141650;23;19960;-85
2023/10/15 07:59:33;;;;;;;;;;;8.60;66.50;;;;;;5141835;23;19987;-85
2023/10/15 08:01:54;;;;;;;;;;;8.70;66.50;;;;;;5142264;23;20380;-84
2023/10/15 08:04:14;;;;;;;;;;;8.70;66.40;;;;;;5153650;22;19915;-87
2023/10/15 08:06:35;;;;;;;;;;;8.80;66.40;;;;;;5157470;22;19919;-88
2023/10/15 08:08:55;;;;;;;;;;;8.80;66.30;;;;;;5145383;23;19912;-88
2023/10/15 08:11:16;;;;;;;;;;;8.90;66.30;;;;;;5148165;23;19923;-86
2023/10/15 08:13:37;;;;;;;;;;;8.90;66.20;;;;;;5145270;23;19939;-84
2023/10/15 08:15:57;;;;;;;;;;;8.90;65.40;;;;;;5121988;23;20526;-85
2023/10/15 08:18:18;;;;;;;;;;;8.90;65.70;;;;;;5145579;23;19908;-86
2023/10/15 08:20:39;;;;;;;;;;;8.90;65.50;;;;;;5124656;23;19914;-85
2023/10/15 08:23:00;;;;;;;;;;;8.90;65.20;;;;;;5147051;23;19931;-86
2023/10/15 08:25:23;;;;;;;;;;;8.90;65.30;;;;;;5146916;23;19943;-87
2023/10/15 08:27:44;;;;;;;;;;;9.00;65.30;;;;;;5147072;23;19904;-84
2023/10/15 08:30:05;;;;;;;;;;;9.00;64.80;;;;;;5145589;23;20374;-84
2023/10/15 08:32:26;;;;;;;;;;;9.00;64.00;;;;;;5140996;23;19935;-85
2023/10/15 08:34:47;;;;;;;;;;;9.10;63.60;;;;;;5140656;23;19912;-85
2023/10/15 08:37:10;;;;;;;;;;;9.10;63.30;;;;;;5123584;23;19914;-87
2023/10/15 08:39:30;;;;;;;;;;;9.00;63.50;;;;;;5123126;23;19908;-87
2023/10/15 08:41:51;;;;;;;;;;;9.10;63.50;;;;;;5145975;23;19914;-86
2023/10/15 08:44:18;;;;;;;;;;;9.10;63.40;;;;;;5123317;23;19909;-86
2023/10/15 08:46:39;;;;;;;;;;;9.10;63.10;;;;;;5147572;23;19927;-86
2023/10/15 08:49:01;;;;;;;;;;;9.00;63.30;;;;;;5124283;23;19909;-86
2023/10/15 08:51:22;;;;;;;;;;;9.00;63.30;;;;;;5123945;23;20006;-87
2023/10/15 08:53:42;;;;;;;;;;;9.00;63.40;;;;;;5146200;23;19919;-86
2023/10/15 08:56:04;;;;;;;;;;;9.00;63.60;;;;;;5148636;23;19908;-87
2023/10/15 08:58:25;;;;;;;;;;;9.00;63.70;;;;;;5147409;23;19907;-85
2023/10/15 09:00:47;;;;;;;;;;;9.00;63.90;;;;;;5122743;23;19919;-86
2023/10/15 09:03:13;;;;;;;;;;;9.00;64.00;;;;;;5145039;23;19932;-85
2023/10/15 09:05:34;;;;;;;;;;;9.10;64.20;;;;;;5144495;23;19952;-88
2023/10/15 09:07:55;;;;;;;;;;;9.10;64.20;;;;;;5147241;23;20141;-87
2023/10/15 09:10:16;;;;;;;;;;;9.00;64.20;;;;;;5144056;23;19908;-87
2023/10/15 09:12:37;;;;;;;;;;;9.20;64.50;;;;;;5144685;23;19992;-85
2023/10/15 09:14:58;;;;;;;;;;;9.10;64.50;;;;;;5145351;23;19916;-88
2023/10/15 09:17:18;;;;;;;;;;;9.20;64.60;;;;;;5143763;23;20495;-85
2023/10/15 09:19:39;;;;;;;;;;;9.20;64.30;;;;;;5143203;23;19915;-87
2023/10/15 09:22:00;;;;;;;;;;;9.30;64.50;;;;;;5143082;23;19904;-86
2023/10/15 09:24:21;;;;;;;;;;;9.20;64.60;;;;;;5119724;23;19938;-84
2023/10/15 09:26:43;;;;;;;;;;;9.20;64.60;;;;;;5116922;23;20249;-86
2023/10/15 09:29:16;;;;;;;;;;;9.20;64.70;;;;;;5136311;23;19919;-89
2023/10/15 09:31:38;;;;;;;;;;;9.10;64.90;;;;;;5113536;23;20297;-86
2023/10/15 09:34:00;;;;;;;;;;;9.20;64.90;;;;;;5114082;23;19912;-86
2023/10/15 09:36:22;;;;;;;;;;;9.00;64.90;;;;;;5134834;23;19970;-85
2023/10/15 09:38:43;;;;;;;;;;;9.00;65.30;;;;;;5113458;23;19982;-86
2023/10/15 09:41:05;;;;;;;;;;;8.90;65.30;;;;;;5137430;23;19943;-85
2023/10/15 09:43:26;;;;;;;;;;;9.10;65.80;;;;;;5135322;23;19904;-84
2023/10/15 09:45:47;;;;;;;;;;;8.90;65.80;;;;;;5114603;23;19908;-88
2023/10/15 09:48:11;;;;;;;;;;;9.00;66.10;;;;;;5109539;23;19939;-84
2023/10/15 09:50:32;;;;;;;;;;;8.90;66.60;;;;;;5113675;23;19983;-84
2023/10/15 09:53:01;;;;;;;;;;;9.10;66.60;;;;;;5138789;23;19915;-84
2023/10/15 09:55:28;;;;;;;;;;;8.80;66.40;;;;;;5112827;23;19911;-86
2023/10/15 09:57:56;;;;;;;;;;;8.80;67.10;;;;;;5134148;23;19943;-85
2023/10/15 10:00:32;;;;;;;;;;;8.80;67.30;;;;;;5135817;23;20424;-84
2023/10/15 10:02:58;;;;;;;;;;;8.80;67.40;;;;;;5137543;23;19934;-85
2023/10/15 10:05:44;;;;;;;;;;;8.80;67.80;;;;;;5137247;23;19915;-84
2023/10/15 10:08:10;;;;;;;;;;;8.80;69.20;;;;;;5114071;23;19915;-85
2023/10/15 10:10:41;;;;;;;;;;;8.90;69.00;;;;;;5137467;23;20047;-85
2023/10/15 10:13:26;;;;;;;;;;;8.90;68.90;;;;;;5137041;23;20388;-84
2023/10/15 10:15:55;;;;;;;;;;;8.90;68.90;;;;;;5114001;23;20366;-85
2023/10/15 10:18:15;;;;;;;;;;;8.90;69.70;;;;;;5116612;23;19958;-83
2023/10/15 10:20:37;;;;;;;;;;;9.00;69.20;;;;;;5138479;23;19954;-83
2023/10/15 10:22:57;;;;;;;;;;;9.00;69.40;;;;;;5138690;23;19919;-84
2023/10/15 10:25:30;;;;;;;;;;;9.10;69.50;;;;;;5114511;23;20028;-83
2023/10/15 10:27:59;;;;;;;;;;;9.00;69.80;;;;;;5140325;23;19919;-84
2023/10/15 10:30:21;;;;;;;;;;;9.10;70.00;;;;;;5150645;23;19910;-84
2023/10/15 10:32:41;;;;;;;;;;;9.10;69.90;;;;;;5160134;22;19935;-85
2023/10/15 10:35:20;;;;;;;;;;;9.20;70.10;;;;;;5143818;23;19958;-84
2023/10/15 10:37:59;;;;;;;;;;;9.30;70.30;;;;;;5144742;23;19927;-85
2023/10/15 10:40:37;;;;;;;;;;;9.30;71.20;;;;;;5144093;23;19994;-83
2023/10/15 10:43:01;;;;;;;;;;;9.40;70.40;;;;;;5122114;23;19923;-85
2023/10/15 10:45:40;;;;;;;;;;;9.50;70.50;;;;;;5147001;23;19964;-85
2023/10/15 10:47:59;;;;;;;;;;;9.50;70.50;;;;;;5144699;23;19915;-87
2023/10/15 10:50:20;;;;;;;;;;;9.70;70.70;;;;;;5144298;23;20382;-84
2023/10/15 10:52:39;;;;;;;;;;;9.80;70.50;;;;;;5139940;23;19967;-85
2023/10/15 10:55:19;;;;;;;;;;;9.80;70.50;;;;;;5140765;22;19919;-83
2023/10/15 10:57:41;;;;;;;;;;;9.70;70.30;;;;;;5140558;23;19919;-85
2023/10/15 11:00:05;;;;;;;;;;;9.80;70.10;;;;;;5117150;23;20541;-85
2023/10/15 11:02:24;;;;;;;;;;;9.90;70.10;;;;;;5138705;23;19915;-84
2023/10/15 11:04:47;;;;;;;;;;;9.90;70.80;;;;;;5117024;23;19915;-85
2023/10/15 11:07:07;;;;;;;;;;;9.90;70.10;;;;;;5117549;23;20325;-85
2023/10/15 11:09:26;;;;;;;;;;;10.00;70.70;;;;;;5138677;23;19922;-86
2023/10/15 11:11:46;;;;;;;;;;;10.00;69.80;;;;;;5138851;23;20477;-85
2023/10/15 11:14:05;;;;;;;;;;;10.00;69.70;;;;;;5115337;23;20443;-86
2023/10/15 11:16:24;;;;;;;;;;;10.00;70.30;;;;;;5114696;23;19967;-84
2023/10/15 11:18:45;;;;;;;;;;;9.90;69.40;;;;;;5116117;23;19951;-87
2023/10/15 11:21:04;;;;;;;;;;;9.90;69.30;;;;;;5138487;23;19961;-87
2023/10/15 11:23:23;;;;;;;;;;;9.80;70.10;;;;;;5139458;23;19915;-84
2023/10/15 11:25:43;;;;;;;;;;;9.90;70.30;;;;;;5142177;23;19958;-85
2023/10/15 11:28:05;;;;;;;;;;;9.80;69.30;;;;;;5119377;23;20470;-87
2023/10/15 11:30:25;;;;;;;;;;;9.80;69.40;;;;;;5148136;23;20109;-86
2023/10/15 11:32:46;;;;;;;;;;;9.90;69.60;;;;;;5157286;22;19915;-85
2023/10/15 11:35:07;;;;;;;;;;;9.80;69.50;;;;;;5159774;22;19907;-89
2023/10/15 11:37:29;;;;;;;;;;;9.70;69.60;;;;;;5163155;22;19934;-87
2023/10/15 11:39:51;;;;;;;;;;;9.70;69.70;;;;;;5165106;22;19915;-85
2023/10/15 11:42:10;;;;;;;;;;;9.60;69.90;;;;;;5139933;23;19932;-85
2023/10/15 11:44:33;;;;;;;;;;;9.70;70.00;;;;;;5146331;23;20294;-86
2023/10/15 11:46:53;;;;;;;;;;;9.60;70.60;;;;;;5142746;23;19958;-86
2023/10/15 11:49:12;;;;;;;;;;;9.60;71.40;;;;;;5139238;23;20339;-86
2023/10/15 11:51:32;;;;;;;;;;;9.80;72.20;;;;;;5135878;23;20094;-85
2023/10/15 11:53:51;;;;;;;;;;;9.60;71.70;;;;;;5138953;23;20630;-86
2023/10/15 11:56:16;;;;;;;;;;;9.80;71.90;;;;;;5118821;23;19957;-85
2023/10/15 11:58:36;;;;;;;;;;;9.70;72.20;;;;;;5139234;23;19915;-85
2023/10/15 12:00:56;;;;;;;;;;;9.70;71.70;;;;;;5117078;23;19916;-86
2023/10/15 12:03:16;;;;;;;;;;;9.80;71.70;;;;;;5117198;23;19911;-86
2023/10/15 12:05:37;;;;;;;;;;;9.90;71.80;;;;;;5116432;23;20320;-86
2023/10/15 12:07:56;;;;;;;;;;;9.90;71.90;;;;;;5139346;23;20608;-87
2023/10/15 12:10:15;;;;;;;;;;;9.90;72.20;;;;;;5137175;23;19919;-86
2023/10/15 12:12:34;;;;;;;;;;;9.90;72.10;;;;;;5137494;23;19919;-85
2023/10/15 12:14:54;;;;;;;;;;;9.90;72.10;;;;;;5138561;23;19954;-87
2023/10/15 12:17:15;;;;;;;;;;;10.00;72.00;;;;;;5139256;23;20407;-86
2023/10/15 12:19:35;;;;;;;;;;;9.90;71.90;;;;;;5137014;23;19911;-83
2023/10/15 12:21:54;;;;;;;;;;;10.00;71.50;;;;;;5137750;23;19930;-87
2023/10/15 12:24:13;;;;;;;;;;;9.80;70.70;;;;;;5137418;23;19911;-85
2023/10/15 12:26:33;;;;;;;;;;;9.80;70.40;;;;;;5113198;23;20015;-85
2023/10/15 12:28:52;;;;;;;;;;;9.90;70.20;;;;;;5135693;23;19926;-85
2023/10/15 12:31:11;;;;;;;;;;;9.80;70.70;;;;;;5133584;23;19963;-86
2023/10/15 12:33:33;;;;;;;;;;;9.80;70.00;;;;;;5136018;23;19919;-84
2023/10/15 12:35:54;;;;;;;;;;;9.80;69.90;;;;;;5137525;23;19961;-84
2023/10/15 12:38:16;;;;;;;;;;;9.70;70.50;;;;;;5113564;23;19943;-85
2023/10/15 12:40:38;;;;;;;;;;;9.70;70.40;;;;;;5137060;23;19954;-84
2023/10/15 12:43:08;;;;;;;;;;;9.70;69.70;;;;;;5116346;23;19911;-85
2023/10/15 12:45:28;;;;;;;;;;;9.60;69.50;;;;;;5136834;23;20408;-85
2023/10/15 12:47:48;;;;;;;;;;;9.60;69.40;;;;;;5135335;23;19961;-84
2023/10/15 12:50:16;;;;;;;;;;;9.60;69.60;;;;;;5137288;23;19930;-84
2023/10/15 12:52:35;;;;;;;;;;;9.50;69.80;;;;;;5114630;23;19947;-85
2023/10/15 12:55:00;;;;;;;;;;;9.50;69.90;;;;;;5137912;23;19915;-85
2023/10/15 12:57:22;;;;;;;;;;;9.50;70.00;;;;;;5112739;23;19928;-84
2023/10/15 12:59:41;;;;;;;;;;;9.50;70.00;;;;;;5112356;23;19914;-86
2023/10/15 13:02:00;;;;;;;;;;;9.40;70.00;;;;;;5136685;23;19966;-85
2023/10/15 13:04:21;;;;;;;;;;;9.50;70.10;;;;;;5136772;23;20117;-85
2023/10/15 13:06:41;;;;;;;;;;;9.40;70.20;;;;;;5127398;22;19957;-86
2023/10/15 13:09:08;;;;;;;;;;;9.50;70.60;;;;;;5157949;22;19956;-84
2023/10/15 13:11:27;;;;;;;;;;;9.30;70.50;;;;;;5118683;23;19915;-85
2023/10/15 13:13:58;;;;;;;;;;;9.30;70.60;;;;;;5134808;23;19970;-85
2023/10/15 13:16:18;;;;;;;;;;;9.30;70.70;;;;;;5112117;23;19926;-84
2023/10/15 13:18:40;;;;;;;;;;;9.50;71.00;;;;;;5109200;23;19919;-85
2023/10/15 13:20:59;;;;;;;;;;;9.50;71.40;;;;;;5138269;23;19995;-85
2023/10/15 13:23:18;;;;;;;;;;;9.40;70.90;;;;;;5135118;23;19910;-84
2023/10/15 13:25:38;;;;;;;;;;;9.50;71.70;;;;;;5114859;23;19940;-85
2023/10/15 13:27:58;;;;;;;;;;;9.50;71.00;;;;;;5135000;23;19930;-86
2023/10/15 13:30:17;;;;;;;;;;;9.40;71.50;;;;;;5113439;23;20402;-86